createdAt,value
2023-07-26T00:00:07.296Z,20.44
2023-07-26T00:02:34.261Z,20.26
2023-07-26T00:05:01.226Z,19.96
2023-07-26T00:07:28.138Z,20.84
2023-07-26T00:09:55.072Z,20.92
2023-07-26T00:12:22.021Z,21.11
2023-07-26T00:14:48.918Z,20.88
2023-07-26T00:17:15.777Z,20.25
2023-07-26T00:19:42.726Z,20.37
2023-07-26T00:22:09.591Z,20.17
2023-07-26T00:24:36.598Z,19.90
2023-07-26T00:27:03.718Z,20.91
2023-07-26T00:29:30.622Z,20.08
2023-07-26T00:31:57.523Z,20.26
2023-07-26T00:34:24.400Z,20.78
2023-07-26T00:36:51.313Z,20.33
2023-07-26T00:39:19.712Z,20.62
2023-07-26T00:41:46.672Z,20.51
2023-07-26T00:44:13.546Z,20.75
2023-07-26T00:46:40.882Z,20.54
2023-07-26T00:49:08.768Z,21.52
2023-07-26T00:51:37.206Z,21.46
2023-07-26T00:54:05.282Z,22.01
2023-07-26T00:56:32.462Z,21.84
2023-07-26T00:58:59.772Z,21.98
2023-07-26T01:01:27.970Z,21.51
2023-07-26T01:03:54.901Z,22.02
2023-07-26T01:06:35.231Z,21.57
2023-07-26T01:09:33.388Z,21.11
2023-07-26T01:12:11.436Z,21.78
2023-07-26T01:15:03.950Z,21.44
2023-07-26T01:17:31.252Z,21.30
2023-07-26T01:19:58.253Z,21.95
2023-07-26T01:22:25.208Z,22.36
2023-07-26T01:24:52.132Z,21.49
2023-07-26T01:27:19.136Z,21.90
2023-07-26T01:29:46.080Z,22.11
2023-07-26T01:32:15.983Z,22.58
2023-07-26T01:34:42.929Z,21.70
2023-07-26T01:37:10.165Z,21.74
2023-07-26T01:39:37.130Z,21.05
2023-07-26T01:42:04.577Z,20.93
2023-07-26T01:44:38.350Z,20.59
2023-07-26T01:47:05.616Z,20.98
2023-07-26T01:49:32.642Z,20.59
2023-07-26T01:51:59.660Z,20.70
2023-07-26T01:54:26.584Z,20.94
2023-07-26T01:56:53.477Z,20.37
2023-07-26T01:59:20.361Z,20.08
2023-07-26T02:01:47.300Z,20.69
2023-07-26T02:04:14.275Z,20.00
2023-07-26T02:06:41.207Z,20.57
2023-07-26T02:09:09.864Z,20.20
2023-07-26T02:11:36.812Z,20.32
2023-07-26T02:14:03.712Z,20.37
2023-07-26T02:16:30.636Z,20.18
2023-07-26T02:18:57.570Z,20.01
2023-07-26T02:21:24.613Z,20.15
2023-07-26T02:23:51.513Z,20.10
2023-07-26T02:26:18.412Z,19.68
2023-07-26T02:28:45.303Z,20.04
2023-07-26T02:31:12.253Z,19.69
2023-07-26T02:33:39.144Z,20.02
2023-07-26T02:36:06.105Z,20.21
2023-07-26T02:38:33.067Z,19.74
2023-07-26T02:40:59.959Z,19.47
2023-07-26T02:43:38.997Z,19.83
2023-07-26T02:46:07.854Z,19.39
2023-07-26T02:48:34.862Z,19.46
2023-07-26T02:51:01.797Z,19.31
2023-07-26T02:53:28.728Z,19.34
2023-07-26T02:55:55.710Z,19.00
2023-07-26T02:58:22.601Z,19.28
2023-07-26T03:00:53.674Z,18.89
2023-07-26T03:03:20.677Z,19.22
2023-07-26T03:05:47.844Z,18.88
2023-07-26T03:08:14.759Z,18.72
2023-07-26T03:10:41.665Z,19.09
2023-07-26T03:13:08.580Z,19.47
2023-07-26T03:15:40.041Z,19.10
2023-07-26T03:18:07.062Z,18.87
2023-07-26T03:20:34.024Z,18.86
2023-07-26T03:23:00.934Z,19.26
2023-07-26T03:25:27.832Z,19.45
2023-07-26T03:27:54.909Z,18.69
2023-07-26T03:30:21.751Z,18.81
2023-07-26T03:32:48.719Z,18.81
2023-07-26T03:35:15.715Z,19.05
2023-07-26T03:37:42.641Z,18.72
2023-07-26T03:40:10.189Z,19.46
2023-07-26T03:42:37.094Z,18.87
2023-07-26T03:45:04.236Z,19.27
2023-07-26T03:47:31.192Z,19.07
2023-07-26T03:49:58.153Z,18.92
2023-07-26T03:52:25.070Z,19.10
2023-07-26T03:54:52.179Z,18.91
2023-07-26T03:57:19.101Z,18.83
2023-07-26T03:59:46.010Z,18.76
2023-07-26T04:02:12.982Z,18.88
2023-07-26T04:04:39.939Z,18.76
2023-07-26T04:07:06.947Z,18.94
2023-07-26T04:09:34.073Z,18.49
2023-07-26T04:12:01.028Z,18.70
2023-07-26T04:14:28.026Z,18.52
2023-07-26T04:16:54.946Z,18.95
2023-07-26T04:19:21.856Z,18.81
2023-07-26T04:21:48.807Z,18.55
2023-07-26T04:24:15.838Z,18.88
2023-07-26T04:26:42.802Z,18.92
2023-07-26T04:29:09.681Z,18.53
2023-07-26T04:31:36.608Z,18.60
2023-07-26T04:34:03.566Z,18.83
2023-07-26T04:36:30.864Z,19.01
2023-07-26T04:38:57.969Z,19.15
2023-07-26T04:41:24.942Z,18.76
2023-07-26T04:43:51.887Z,19.01
2023-07-26T04:46:18.815Z,18.38
2023-07-26T04:48:45.819Z,18.81
2023-07-26T04:51:12.813Z,18.45
2023-07-26T04:53:39.733Z,18.59
2023-07-26T04:56:06.644Z,18.62
2023-07-26T04:58:33.710Z,18.54
2023-07-26T05:01:00.682Z,18.84
2023-07-26T05:03:27.663Z,19.07
2023-07-26T05:05:54.595Z,18.66
2023-07-26T05:08:23.120Z,18.96
2023-07-26T05:10:53.351Z,18.93
2023-07-26T05:13:20.606Z,19.41
2023-07-26T05:15:50.645Z,18.72
2023-07-26T05:18:17.515Z,19.31
2023-07-26T05:20:44.412Z,19.01
2023-07-26T05:23:11.323Z,18.81
2023-07-26T05:25:41.042Z,19.10
2023-07-26T05:28:08.007Z,19.37
2023-07-26T05:30:42.521Z,18.68
2023-07-26T05:33:09.912Z,18.92
2023-07-26T05:35:36.797Z,19.39
2023-07-26T05:38:03.990Z,19.46
2023-07-26T05:40:30.868Z,19.31
2023-07-26T05:43:00.359Z,19.69
2023-07-26T05:45:27.734Z,19.69
2023-07-26T05:47:54.683Z,19.32
2023-07-26T05:50:24.975Z,19.23
2023-07-26T05:52:52.541Z,19.18
2023-07-26T05:55:19.570Z,19.02
2023-07-26T05:57:46.489Z,18.74
2023-07-26T06:00:15.322Z,18.81
2023-07-26T06:02:42.779Z,18.29
2023-07-26T06:05:10.162Z,18.64
2023-07-26T06:07:40.182Z,18.82
2023-07-26T06:10:07.277Z,18.77
2023-07-26T06:12:34.305Z,19.00
2023-07-26T06:15:01.256Z,18.92
2023-07-26T06:17:31.008Z,18.76
2023-07-26T06:19:57.930Z,18.33
2023-07-26T06:22:24.788Z,18.74
2023-07-26T06:24:51.790Z,18.58
2023-07-26T06:27:30.589Z,18.53
2023-07-26T06:29:58.443Z,18.80
2023-07-26T06:32:25.394Z,19.44
2023-07-26T06:34:52.350Z,19.34
2023-07-26T06:37:30.233Z,18.81
2023-07-26T06:39:57.156Z,19.54
2023-07-26T06:42:24.135Z,19.21
2023-07-26T06:44:51.057Z,19.42
2023-07-26T06:47:18.965Z,19.63
2023-07-26T06:49:45.862Z,19.14
2023-07-26T06:52:12.855Z,19.31
2023-07-26T06:54:39.767Z,19.37
2023-07-26T06:57:07.564Z,19.17
2023-07-26T06:59:34.460Z,19.33
2023-07-26T07:02:01.360Z,18.92
2023-07-26T07:04:28.387Z,18.98
2023-07-26T07:06:55.293Z,18.83
2023-07-26T07:09:25.400Z,18.66
2023-07-26T07:11:52.392Z,19.01
2023-07-26T07:14:20.347Z,19.28
2023-07-26T07:16:47.352Z,18.84
2023-07-26T07:19:14.260Z,19.16
2023-07-26T07:21:42.587Z,19.12
2023-07-26T07:24:09.491Z,18.87
2023-07-26T07:26:36.379Z,19.03
2023-07-26T07:29:07.025Z,18.37
2023-07-26T07:31:34.252Z,19.37
2023-07-26T07:34:01.498Z,19.50
2023-07-26T07:36:28.430Z,19.17
2023-07-26T07:38:56.341Z,19.38
2023-07-26T07:41:23.237Z,19.67
2023-07-26T07:43:50.136Z,19.84
2023-07-26T07:46:17.124Z,19.70
2023-07-26T07:48:44.105Z,19.40
2023-07-26T07:51:10.987Z,19.19
2023-07-26T07:53:38.040Z,19.23
2023-07-26T07:56:05.097Z,18.86
2023-07-26T07:58:37.856Z,18.92
2023-07-26T08:01:04.781Z,18.77
2023-07-26T08:03:31.736Z,18.92
2023-07-26T08:05:58.699Z,18.85
2023-07-26T08:08:25.685Z,19.02
2023-07-26T08:10:52.548Z,18.99
2023-07-26T08:13:19.449Z,18.66
2023-07-26T08:15:46.554Z,18.90
2023-07-26T08:18:13.573Z,19.12
2023-07-26T08:20:40.503Z,18.96
2023-07-26T08:23:07.770Z,19.05
2023-07-26T08:25:35.129Z,18.84
2023-07-26T08:28:03.066Z,18.92
2023-07-26T08:30:30.010Z,18.21
2023-07-26T08:32:57.010Z,18.89
2023-07-26T08:35:24.185Z,18.83
2023-07-26T08:37:54.056Z,18.81
2023-07-26T08:40:22.331Z,18.62
2023-07-26T08:42:49.426Z,18.43
2023-07-26T08:45:17.498Z,19.02
2023-07-26T08:47:44.656Z,19.41
2023-07-26T08:50:12.019Z,19.08
2023-07-26T08:52:39.102Z,19.77
2023-07-26T08:55:07.429Z,19.45
2023-07-26T08:57:34.522Z,19.89
2023-07-26T09:00:01.569Z,19.79
2023-07-26T09:02:29.049Z,19.19
2023-07-26T09:04:57.768Z,19.18
2023-07-26T09:07:30.728Z,19.31
2023-07-26T09:09:57.802Z,19.02
2023-07-26T09:12:27.188Z,18.88
2023-07-26T09:14:55.619Z,18.58
2023-07-26T09:17:22.748Z,18.83
2023-07-26T09:19:53.001Z,19.01
2023-07-26T09:22:20.127Z,19.60
2023-07-26T09:24:51.106Z,19.76
2023-07-26T09:27:18.509Z,19.81
2023-07-26T09:29:55.494Z,19.96
2023-07-26T09:32:29.737Z,20.12
2023-07-26T09:35:01.217Z,19.74
2023-07-26T09:37:28.614Z,20.50
2023-07-26T09:39:55.628Z,20.13
2023-07-26T09:42:23.896Z,19.85
2023-07-26T09:44:59.939Z,19.72
2023-07-26T09:52:37.445Z,19.88
2023-07-26T09:55:09.515Z,20.22
2023-07-26T09:57:39.662Z,20.20
2023-07-26T10:00:08.752Z,20.51
2023-07-26T10:02:36.739Z,20.80
2023-07-26T10:05:04.733Z,20.03
2023-07-26T10:07:32.710Z,21.22
2023-07-26T10:10:02.442Z,21.31
2023-07-26T10:12:31.139Z,21.62
2023-07-26T10:14:58.107Z,21.45
2023-07-26T10:17:27.994Z,21.36
2023-07-26T10:19:56.334Z,22.07
2023-07-26T10:22:24.192Z,22.57
2023-07-26T10:24:51.295Z,22.15
2023-07-26T10:27:18.324Z,21.77
2023-07-26T10:29:45.965Z,21.34
2023-07-26T10:32:13.318Z,21.20
2023-07-26T10:34:41.359Z,21.29
2023-07-26T10:37:21.222Z,21.04
2023-07-26T10:39:50.459Z,21.37
2023-07-26T10:42:27.407Z,21.25
2023-07-26T10:45:01.276Z,21.58
2023-07-26T10:47:28.313Z,22.46
2023-07-26T10:49:56.579Z,21.79
2023-07-26T10:52:23.480Z,21.55
2023-07-26T10:54:52.226Z,21.31
2023-07-26T10:57:28.462Z,21.59
2023-07-26T11:00:12.230Z,20.52
2023-07-26T11:02:49.545Z,21.23
2023-07-26T11:05:24.024Z,21.17
2023-07-26T11:07:59.885Z,21.67
2023-07-26T11:10:37.028Z,21.58
2023-07-26T11:13:13.825Z,21.77
2023-07-26T11:16:11.377Z,22.02
2023-07-26T11:18:29.870Z,22.39
2023-07-26T11:20:57.127Z,22.62
2023-07-26T11:23:29.074Z,21.78
2023-07-26T11:26:00.753Z,21.90
2023-07-26T11:28:32.714Z,21.76
2023-07-26T11:31:00.464Z,21.96
2023-07-26T11:33:31.239Z,21.15
2023-07-26T11:35:59.127Z,21.71
2023-07-26T11:38:26.306Z,21.26
2023-07-26T11:40:59.660Z,20.79
2023-07-26T11:43:27.992Z,20.75
2023-07-26T11:45:56.998Z,20.95
2023-07-26T11:48:25.861Z,20.80
2023-07-26T11:50:56.772Z,20.39
2023-07-26T11:56:08.273Z,21.42
2023-07-26T11:58:35.833Z,21.51
2023-07-26T12:01:05.170Z,21.79
2023-07-26T12:03:33.129Z,22.11
2023-07-26T12:06:03.547Z,22.50
2023-07-26T12:08:32.577Z,22.45
2023-07-26T12:11:03.797Z,21.82
2023-07-26T12:13:34.052Z,21.86
2023-07-26T12:16:03.345Z,21.16
2023-07-26T12:18:30.844Z,21.24
2023-07-26T12:21:10.307Z,20.99
2023-07-26T12:23:53.104Z,21.32
2023-07-26T12:26:30.838Z,21.55
2023-07-26T12:28:59.895Z,21.27
2023-07-26T12:31:28.969Z,21.21
2023-07-26T12:34:00.247Z,20.91
2023-07-26T12:36:32.086Z,21.71
2023-07-26T12:38:59.557Z,21.84
2023-07-26T12:41:27.427Z,22.45
2023-07-26T12:43:57.909Z,22.85
2023-07-26T12:46:25.054Z,23.29
2023-07-26T12:48:58.826Z,22.97
2023-07-26T12:51:27.050Z,22.87
2023-07-26T12:53:54.863Z,22.47
2023-07-26T12:56:22.395Z,21.83
2023-07-26T12:59:04.768Z,21.76
2023-07-26T13:01:33.744Z,21.56
2023-07-26T13:04:00.867Z,21.70
2023-07-26T13:06:27.855Z,21.81
2023-07-26T13:08:54.839Z,22.07
2023-07-26T13:11:21.712Z,22.06
2023-07-26T13:13:48.595Z,22.33
2023-07-26T13:16:15.553Z,22.69
2023-07-26T13:18:42.514Z,23.42
2023-07-26T13:21:09.449Z,23.45
2023-07-26T13:23:36.308Z,23.64
2023-07-26T13:26:03.830Z,23.37
2023-07-26T13:28:30.762Z,23.48
2023-07-26T13:30:57.652Z,23.86
2023-07-26T13:33:27.136Z,24.15
2023-07-26T13:35:55.700Z,23.97
2023-07-26T13:38:22.782Z,23.39
2023-07-26T13:40:49.688Z,23.47
2023-07-26T13:43:16.584Z,23.11
2023-07-26T13:45:44.848Z,22.81
2023-07-26T13:48:14.169Z,22.39
2023-07-26T13:50:41.111Z,22.78
2023-07-26T13:53:08.018Z,23.09
2023-07-26T13:55:35.102Z,23.69
2023-07-26T13:58:01.986Z,23.09
2023-07-26T14:00:28.904Z,22.11
2023-07-26T14:02:55.948Z,21.68
2023-07-26T14:05:23.140Z,22.41
2023-07-26T14:07:50.071Z,22.44
2023-07-26T14:10:17.049Z,22.43
2023-07-26T14:12:44.035Z,23.11
2023-07-26T14:15:10.964Z,22.57
2023-07-26T14:17:38.057Z,23.83
2023-07-26T14:20:05.731Z,24.17
2023-07-26T14:22:32.651Z,24.39
2023-07-26T14:24:59.556Z,24.03
2023-07-26T14:27:26.455Z,23.12
2023-07-26T14:29:53.379Z,23.40
2023-07-26T14:32:20.298Z,23.11
2023-07-26T14:34:47.232Z,22.74
2023-07-26T14:37:14.188Z,22.93
2023-07-26T14:39:41.117Z,23.14
2023-07-26T14:42:08.374Z,22.38
2023-07-26T14:44:35.250Z,22.42
2023-07-26T14:47:02.204Z,22.50
2023-07-26T14:49:29.210Z,22.43
2023-07-26T14:51:56.131Z,21.37
2023-07-26T14:54:23.187Z,21.45
2023-07-26T14:57:04.604Z,21.64
2023-07-26T14:59:36.921Z,21.13
2023-07-26T15:02:03.926Z,21.07
2023-07-26T15:04:31.050Z,20.88
2023-07-26T15:06:58.083Z,20.28
2023-07-26T15:09:25.027Z,20.16
2023-07-26T15:11:51.906Z,20.07
2023-07-26T15:14:18.766Z,19.11
2023-07-26T15:16:45.692Z,19.88
2023-07-26T15:19:12.629Z,20.33
2023-07-26T15:21:39.508Z,21.46
2023-07-26T15:24:06.486Z,21.92
2023-07-26T15:26:33.526Z,21.57
2023-07-26T15:29:00.429Z,21.65
2023-07-26T15:31:28.544Z,22.26
2023-07-26T15:33:55.589Z,22.51
2023-07-26T15:36:22.485Z,22.28
2023-07-26T15:38:49.418Z,22.08
2023-07-26T15:41:17.081Z,21.45
2023-07-26T15:46:37.049Z,21.83
2023-07-26T15:49:03.163Z,22.36
2023-07-26T15:51:30.642Z,21.98
2023-07-26T15:53:58.310Z,22.66
2023-07-26T15:56:25.693Z,22.12
2023-07-26T15:58:52.878Z,22.12
2023-07-26T16:01:24.291Z,22.52
2023-07-26T16:03:53.705Z,22.32
2023-07-26T16:06:21.126Z,22.43
2023-07-26T16:11:18.615Z,21.70
2023-07-26T16:13:45.620Z,21.95
2023-07-26T16:19:12.412Z,21.96
2023-07-26T16:23:58.964Z,22.21
2023-07-26T16:26:25.871Z,21.64
2023-07-26T16:28:52.753Z,21.76
2023-07-26T16:31:19.715Z,21.22
2023-07-26T16:33:46.676Z,21.61
2023-07-26T16:36:13.600Z,21.99
2023-07-26T16:38:40.528Z,21.77
2023-07-26T16:41:07.429Z,21.31
2023-07-26T16:43:34.325Z,21.30
2023-07-26T16:46:01.289Z,20.96
2023-07-26T16:48:28.299Z,21.34
2023-07-26T16:50:55.220Z,22.21
2023-07-26T16:53:22.184Z,21.55
2023-07-26T16:55:49.140Z,21.39
2023-07-26T16:58:16.032Z,21.54
2023-07-26T17:00:43.575Z,21.62
2023-07-26T17:03:10.775Z,21.52
2023-07-26T17:05:37.997Z,21.45
2023-07-26T17:08:05.391Z,21.05
2023-07-26T17:10:32.446Z,22.38
2023-07-26T17:12:59.329Z,22.56
2023-07-26T17:15:26.261Z,22.45
2023-07-26T17:17:53.215Z,22.73
2023-07-26T17:20:20.132Z,22.60
2023-07-26T17:22:47.098Z,22.66
2023-07-26T17:25:14.009Z,22.59
2023-07-26T17:27:41.696Z,22.94
2023-07-26T17:30:09.588Z,23.15
2023-07-26T17:32:36.556Z,22.36
2023-07-26T17:35:03.620Z,22.70
2023-07-26T17:37:30.508Z,23.22
2023-07-26T17:39:57.411Z,23.35
2023-07-26T17:42:24.307Z,23.23
2023-07-26T17:44:51.738Z,23.53
2023-07-26T17:47:19.071Z,22.59
2023-07-26T17:49:46.008Z,22.36
2023-07-26T17:52:12.969Z,21.43
2023-07-26T17:54:39.849Z,21.56
2023-07-26T17:57:07.010Z,21.16
2023-07-26T17:59:39.285Z,20.81
2023-07-26T18:02:07.435Z,20.59
2023-07-26T18:04:34.691Z,20.68
2023-07-26T18:07:01.855Z,20.49
2023-07-26T18:09:28.960Z,20.64
2023-07-26T18:11:56.497Z,20.38
2023-07-26T18:14:24.767Z,19.97
2023-07-26T18:16:52.206Z,20.12
2023-07-26T18:19:20.687Z,20.05
2023-07-26T18:21:47.661Z,19.72
2023-07-26T18:24:14.547Z,19.34
2023-07-26T18:26:42.110Z,19.41
2023-07-26T18:29:09.377Z,19.59
2023-07-26T18:31:40.488Z,19.70
2023-07-26T18:34:09.149Z,19.32
2023-07-26T18:36:36.393Z,20.12
2023-07-26T18:39:03.847Z,19.81
2023-07-26T18:41:31.143Z,19.35
2023-07-26T18:43:58.144Z,19.44
2023-07-26T18:46:25.619Z,20.39
2023-07-26T18:48:52.871Z,19.91
2023-07-26T18:51:19.827Z,20.07
2023-07-26T18:53:46.794Z,19.80
2023-07-26T18:56:13.671Z,19.79
2023-07-26T18:58:41.067Z,19.82
2023-07-26T19:01:08.016Z,18.73
2023-07-26T19:03:34.989Z,18.78
2023-07-26T19:06:02.183Z,18.87
2023-07-26T19:08:29.231Z,18.91
2023-07-26T19:10:56.192Z,18.48
2023-07-26T19:13:23.223Z,19.20
2023-07-26T19:16:00.534Z,18.93
2023-07-26T19:18:27.525Z,19.31
2023-07-26T19:21:06.303Z,19.19
2023-07-26T19:23:33.902Z,19.64
2023-07-26T19:26:02.369Z,19.64
2023-07-26T19:28:29.574Z,19.51
2023-07-26T19:30:56.495Z,19.18
2023-07-26T19:33:23.733Z,19.73
2023-07-26T19:35:57.553Z,19.31
2023-07-26T19:38:26.231Z,19.48
2023-07-26T19:41:10.372Z,19.31
2023-07-26T19:43:38.379Z,19.34
2023-07-26T19:46:07.626Z,19.62
2023-07-26T19:48:34.813Z,18.93
2023-07-26T19:51:01.878Z,18.39
2023-07-26T19:53:28.833Z,18.48
2023-07-26T19:55:56.047Z,18.61
2023-07-26T19:58:22.990Z,18.62
2023-07-26T20:00:49.942Z,18.71
2023-07-26T20:03:16.948Z,18.18
2023-07-26T20:05:50.821Z,17.90
2023-07-26T20:08:17.982Z,18.13
2023-07-26T20:10:46.116Z,17.93
2023-07-26T20:13:16.336Z,17.96
2023-07-26T20:15:44.329Z,18.01
2023-07-26T20:18:12.126Z,17.88
2023-07-26T20:20:39.280Z,17.89
2023-07-26T20:23:06.687Z,17.60
2023-07-26T20:25:34.750Z,17.83
2023-07-26T20:28:01.791Z,17.78
2023-07-26T20:30:28.746Z,17.38
2023-07-26T20:32:55.667Z,17.21
2023-07-26T20:35:22.798Z,17.79
2023-07-26T20:37:50.568Z,17.35
2023-07-26T20:40:17.494Z,17.21
2023-07-26T20:42:44.355Z,17.58
2023-07-26T20:45:11.418Z,17.12
2023-07-26T20:47:38.360Z,17.54
2023-07-26T20:50:05.999Z,16.98
2023-07-26T20:52:32.994Z,17.92
2023-07-26T20:55:00.707Z,17.71
2023-07-26T20:57:28.898Z,17.22
2023-07-26T20:59:55.908Z,17.51
2023-07-26T21:02:23.594Z,17.61
2023-07-26T21:04:50.857Z,17.43
2023-07-26T21:07:18.079Z,17.49
2023-07-26T21:09:44.992Z,17.74
2023-07-26T21:12:12.027Z,17.62
2023-07-26T21:14:38.942Z,17.62
2023-07-26T21:17:06.053Z,17.55
2023-07-26T21:19:33.524Z,17.60
2023-07-26T21:22:00.616Z,16.74
2023-07-26T21:24:27.559Z,17.15
2023-07-26T21:26:54.588Z,17.21
2023-07-26T21:29:21.499Z,17.43
2023-07-26T21:31:48.508Z,17.95
2023-07-26T21:34:15.440Z,17.89
2023-07-26T21:36:42.376Z,17.74
2023-07-26T21:39:10.868Z,17.82
2023-07-26T21:41:37.840Z,17.66
2023-07-26T21:44:04.838Z,17.79
2023-07-26T21:46:32.057Z,17.05
2023-07-26T21:48:59.297Z,17.33
2023-07-26T21:51:26.221Z,17.53
2023-07-26T21:53:53.169Z,17.06
2023-07-26T21:56:20.111Z,16.92
2023-07-26T21:58:47.022Z,16.63
2023-07-26T22:01:13.940Z,17.02
2023-07-26T22:03:41.086Z,16.76
2023-07-26T22:06:07.996Z,16.76
2023-07-26T22:08:34.910Z,16.34
2023-07-26T22:11:01.863Z,16.25
2023-07-26T22:13:30.122Z,16.93
2023-07-26T22:15:57.083Z,15.84
2023-07-26T22:18:24.132Z,16.31
2023-07-26T22:21:15.607Z,15.87
2023-07-26T22:23:45.059Z,16.20
2023-07-26T22:26:15.772Z,16.27
2023-07-26T22:28:57.144Z,16.67
2023-07-26T22:31:24.061Z,15.64
2023-07-26T22:33:50.971Z,15.82
2023-07-26T22:36:17.924Z,16.54
2023-07-26T22:38:44.796Z,16.18
2023-07-26T22:41:11.720Z,16.07
2023-07-26T22:43:38.667Z,15.80
2023-07-26T22:46:05.936Z,15.73
2023-07-26T22:48:32.959Z,16.56
2023-07-26T22:50:59.853Z,16.46
2023-07-26T22:53:26.803Z,16.67
2023-07-26T22:55:53.722Z,16.69
2023-07-26T22:58:20.728Z,16.84
2023-07-26T23:00:47.718Z,16.48
2023-07-26T23:03:14.756Z,16.08
2023-07-26T23:05:41.697Z,16.46
2023-07-26T23:08:08.624Z,16.65
2023-07-26T23:10:35.542Z,16.51
2023-07-26T23:13:02.418Z,16.47
2023-07-26T23:15:29.313Z,16.53
2023-07-26T23:17:56.250Z,16.46
2023-07-26T23:20:23.184Z,16.70
2023-07-26T23:22:52.118Z,16.55
2023-07-26T23:25:19.000Z,16.40
2023-07-26T23:27:47.911Z,16.28
2023-07-26T23:30:14.937Z,16.23
2023-07-26T23:32:41.858Z,16.64
2023-07-26T23:35:09.404Z,16.24
2023-07-26T23:37:36.294Z,16.02
2023-07-26T23:40:03.760Z,16.34
2023-07-26T23:42:30.682Z,15.99
2023-07-26T23:44:57.581Z,16.60
2023-07-26T23:47:24.473Z,16.19
2023-07-26T23:49:51.357Z,16.51
2023-07-26T23:52:18.307Z,16.05
2023-07-26T23:54:45.193Z,16.73
2023-07-26T23:57:12.095Z,16.60
2023-07-26T23:59:38.989Z,16.16
